首页
METAR-TAF:

METAR-TAF

机场 :

Harry P. Williams Memorial Airport

Patterson, 路易斯安那州, 美国

纬度: 29-43N, 经度: 091-20W, 海拔: 3米

当前天气观测

该预报发布于50分钟前的02:56 UTC
风速4节,风向
温度 14°C
湿度 100%
气压 1017 hPa
能見度: 16.1公里
多云层高于600英尺

METAR: KPTN 170256Z AUTO 10004KT 10SM BKN006 14/14 A3003 RMK AO2 SLP170 T01440144 51005

时间: 21:46 (03:46 UTC)


TAF: 丢失

超过4000个机场的气象观测和天气预报(METAR&TAF报告)。

可查询的气象台以黄色和红色小点在地图上表示。

将鼠标移到小点上方,可查看气象台名称。

然后点击查看天气观测和预报。

如需切换地图:点击带黑十字的绿色按钮放大地图;点击带横线的绿色按钮缩小地图;或者点击绿色箭头查看邻近地区的地图。


METAR-TAF: